createdAt,value
2023-05-09T00:03:12.736Z,101446.04
2023-05-09T00:08:15.509Z,101439.71
2023-05-09T00:13:18.836Z,101435.48
2023-05-09T00:18:22.123Z,101436.84
2023-05-09T00:23:24.706Z,101436.11
2023-05-09T00:28:27.502Z,101434.73
2023-05-09T00:33:30.386Z,101432.97
2023-05-09T00:38:32.962Z,101432.48
2023-05-09T00:43:35.716Z,101427.26
2023-05-09T00:48:38.589Z,101420.66
2023-05-09T00:53:41.223Z,101420.98
2023-05-09T00:58:44.024Z,101417.27
2023-05-09T01:03:47.313Z,101415.51
2023-05-09T01:09:21.818Z,101416.63
2023-05-09T01:14:44.039Z,101416.70
2023-05-09T01:20:02.576Z,101416.74
2023-05-09T01:25:21.375Z,101412.64
2023-05-09T01:30:25.976Z,101412.52
2023-05-09T01:35:32.115Z,101415.04
2023-05-09T01:40:36.907Z,101414.13
2023-05-09T01:45:41.551Z,101415.90
2023-05-09T01:50:45.802Z,101414.55
2023-05-09T01:55:51.292Z,101408.89
2023-05-09T02:00:57.496Z,101406.23
2023-05-09T02:06:03.329Z,101403.48
2023-05-09T02:11:07.269Z,101403.10
2023-05-09T02:16:10.340Z,101407.73
2023-05-09T02:21:13.068Z,101412.27
2023-05-09T02:26:15.889Z,101413.34
2023-05-09T02:31:20.744Z,101413.77
2023-05-09T02:36:24.426Z,101414.05
2023-05-09T02:41:28.942Z,101419.21
2023-05-09T02:46:32.004Z,101426.45
2023-05-09T02:51:34.680Z,101423.77
2023-05-09T02:56:37.281Z,101417.41
2023-05-09T03:01:39.871Z,101412.73
2023-05-09T03:06:42.482Z,101415.55
2023-05-09T03:11:45.483Z,101417.88
2023-05-09T03:16:48.213Z,101417.27
2023-05-09T03:21:50.881Z,101418.58
2023-05-09T03:26:53.652Z,101419.22
2023-05-09T03:31:56.508Z,101422.95
2023-05-09T03:37:00.181Z,101416.86
2023-05-09T03:42:02.939Z,101420.58
2023-05-09T03:47:05.712Z,101426.09
2023-05-09T03:52:08.446Z,101423.88
2023-05-09T03:57:10.988Z,101420.77
2023-05-09T04:02:13.662Z,101421.26
2023-05-09T04:07:16.588Z,101425.23
2023-05-09T04:12:19.391Z,101427.46
2023-05-09T04:17:21.970Z,101431.66
2023-05-09T04:22:24.574Z,101431.69
2023-05-09T04:27:28.155Z,101433.15
2023-05-09T04:32:30.970Z,101433.42
2023-05-09T04:37:33.772Z,101434.46
2023-05-09T04:42:37.620Z,101438.92
2023-05-09T04:47:40.241Z,101435.66
2023-05-09T04:52:43.171Z,101437.98
2023-05-09T04:57:45.766Z,101442.10
2023-05-09T05:02:48.394Z,101444.16
2023-05-09T05:07:51.013Z,101446.16
2023-05-09T05:12:53.901Z,101442.00
2023-05-09T05:17:56.529Z,101440.80
2023-05-09T05:22:59.362Z,101436.98
2023-05-09T05:28:02.158Z,101441.68
2023-05-09T05:33:04.939Z,101450.59
2023-05-09T05:38:07.550Z,101452.84
2023-05-09T05:43:10.256Z,101450.80
2023-05-09T05:48:12.919Z,101452.93
2023-05-09T05:53:15.516Z,101453.65
2023-05-09T05:58:18.470Z,101456.73
2023-05-09T06:03:22.400Z,101454.72
2023-05-09T06:08:25.073Z,101451.10
2023-05-09T06:13:28.010Z,101450.23
2023-05-09T06:18:30.904Z,101454.70
2023-05-09T06:23:33.666Z,101454.17
2023-05-09T06:28:36.386Z,101452.26
2023-05-09T06:33:39.345Z,101456.02
2023-05-09T06:38:43.714Z,101455.81
2023-05-09T06:43:48.046Z,101449.16
2023-05-09T06:48:50.783Z,101451.30
2023-05-09T06:53:53.408Z,101447.92
2023-05-09T06:58:55.996Z,101450.95
2023-05-09T07:03:59.715Z,101447.02
2023-05-09T07:09:04.006Z,101443.67
2023-05-09T07:14:06.626Z,101440.07
2023-05-09T07:19:09.145Z,101434.32
2023-05-09T07:24:11.884Z,101431.48
2023-05-09T07:29:14.422Z,101427.52
2023-05-09T07:34:17.854Z,101422.20
2023-05-09T07:39:20.600Z,101416.58
2023-05-09T07:44:23.902Z,101411.19
2023-05-09T07:49:26.837Z,101405.22
2023-05-09T07:54:29.392Z,101402.52
2023-05-09T07:59:31.996Z,101398.52
2023-05-09T08:04:38.896Z,101391.94
2023-05-09T08:09:41.662Z,101387.73
2023-05-09T08:14:44.249Z,101384.89
2023-05-09T08:19:46.876Z,101379.17
2023-05-09T08:24:49.412Z,101376.05
2023-05-09T08:29:51.958Z,101366.98
2023-05-09T08:34:54.920Z,101364.98
2023-05-09T08:39:57.452Z,101359.75
2023-05-09T08:45:01.952Z,101350.95
2023-05-09T08:50:05.701Z,101346.20
2023-05-09T08:55:08.532Z,101346.23
2023-05-09T09:00:13.952Z,101334.83
2023-05-09T09:05:39.573Z,101326.52
2023-05-09T09:10:43.281Z,101325.76
2023-05-09T09:15:47.141Z,101320.35
2023-05-09T09:21:18.970Z,101312.62
2023-05-09T09:26:22.225Z,101313.67
2023-05-09T09:31:27.396Z,101310.48
2023-05-09T09:36:35.094Z,101304.38
2023-05-09T09:41:39.007Z,101295.33
2023-05-09T09:46:50.276Z,101288.39
2023-05-09T09:51:58.194Z,101287.52
2023-05-09T09:57:01.883Z,101291.77
2023-05-09T10:02:08.824Z,101284.51
2023-05-09T10:07:14.619Z,101275.52
2023-05-09T10:12:19.972Z,101272.67
2023-05-09T10:17:23.375Z,101262.30
2023-05-09T10:22:26.342Z,101258.13
2023-05-09T10:27:32.129Z,101257.45
2023-05-09T10:32:49.264Z,101248.45
2023-05-09T10:37:55.959Z,101246.04
2023-05-09T10:42:58.633Z,101238.58
2023-05-09T10:48:04.005Z,101228.52
2023-05-09T10:53:26.611Z,101221.30
2023-05-09T10:58:31.884Z,101214.67
2023-05-09T11:03:54.451Z,101213.21
2023-05-09T11:08:56.992Z,101202.98
2023-05-09T11:13:59.532Z,101194.76
2023-05-09T11:19:02.036Z,101187.25
2023-05-09T11:24:17.004Z,101180.45
2023-05-09T11:29:19.615Z,101177.81
2023-05-09T11:34:22.451Z,101170.95
2023-05-09T11:39:25.249Z,101162.84
2023-05-09T11:44:28.229Z,101152.53
2023-05-09T11:49:31.215Z,101150.30
2023-05-09T11:54:36.124Z,101140.66
2023-05-09T11:59:38.814Z,101133.37
2023-05-09T12:04:41.502Z,101127.20
2023-05-09T12:09:44.447Z,101118.64
2023-05-09T12:14:48.602Z,101112.39
2023-05-09T12:19:52.859Z,101106.61
2023-05-09T12:24:55.748Z,101102.17
2023-05-09T12:30:00.004Z,101097.36
2023-05-09T12:35:04.392Z,101089.57
2023-05-09T12:40:12.839Z,101081.77
2023-05-09T12:45:15.929Z,101076.30
2023-05-09T12:50:19.374Z,101072.28
2023-05-09T12:55:23.228Z,101065.66
2023-05-09T13:00:26.209Z,101055.88
2023-05-09T13:05:28.823Z,101050.98
2023-05-09T13:10:31.612Z,101045.48
2023-05-09T13:15:34.221Z,101037.58
2023-05-09T13:20:36.825Z,101034.80
2023-05-09T13:25:39.371Z,101032.15
2023-05-09T13:30:43.169Z,101023.50
2023-05-09T13:35:47.176Z,101017.46
2023-05-09T13:40:52.533Z,101001.88
2023-05-09T13:45:55.169Z,100990.14
2023-05-09T13:50:59.935Z,100983.16
2023-05-09T13:56:02.594Z,100976.60
2023-05-09T14:01:07.736Z,100973.68
2023-05-09T14:06:12.448Z,100976.19
2023-05-09T14:11:16.595Z,100968.37
2023-05-09T14:16:20.866Z,100958.70
2023-05-09T14:21:23.437Z,100957.46
2023-05-09T14:26:26.708Z,100950.88
2023-05-09T14:31:30.530Z,100946.26
2023-05-09T14:36:33.213Z,100944.60
2023-05-09T14:41:36.253Z,100941.89
2023-05-09T14:46:38.871Z,100936.64
2023-05-09T14:51:41.496Z,100930.86
2023-05-09T14:56:44.571Z,100930.26
2023-05-09T15:01:47.580Z,100923.23
2023-05-09T15:06:50.322Z,100911.77
2023-05-09T15:11:53.389Z,100906.98
2023-05-09T15:16:59.045Z,100900.10
2023-05-09T15:22:03.891Z,100896.39
2023-05-09T15:27:06.505Z,100894.08
2023-05-09T15:32:09.080Z,100892.06
2023-05-09T15:37:11.630Z,100885.50
2023-05-09T15:42:15.890Z,100881.94
2023-05-09T15:47:18.452Z,100875.91
2023-05-09T15:52:21.435Z,100871.61
2023-05-09T15:57:24.840Z,100866.33
2023-05-09T16:02:28.563Z,100856.52
2023-05-09T16:07:32.698Z,100850.68
2023-05-09T16:12:36.676Z,100844.95
2023-05-09T16:17:39.229Z,100841.09
2023-05-09T16:22:42.408Z,100831.25
2023-05-09T16:27:45.169Z,100825.08
2023-05-09T16:32:47.747Z,100821.33
2023-05-09T16:37:50.709Z,100817.36
2023-05-09T16:42:53.810Z,100815.73
2023-05-09T16:47:58.026Z,100810.78
2023-05-09T16:53:02.342Z,100808.98
2023-05-09T16:58:04.879Z,100803.39
2023-05-09T17:03:07.858Z,100799.04
2023-05-09T17:08:13.020Z,100800.40
2023-05-09T17:13:15.631Z,100792.30
2023-05-09T17:18:33.326Z,100788.83
2023-05-09T17:23:39.475Z,100792.83
2023-05-09T17:28:42.179Z,100786.33
2023-05-09T17:33:44.782Z,100782.88
2023-05-09T17:38:47.326Z,100780.77
2023-05-09T17:43:51.808Z,100782.58
2023-05-09T17:48:54.621Z,100777.69
2023-05-09T17:53:57.212Z,100778.79
2023-05-09T17:59:01.607Z,100781.19
2023-05-09T18:04:04.493Z,100781.68
2023-05-09T18:09:07.103Z,100786.17
2023-05-09T18:14:09.746Z,100788.27
2023-05-09T18:19:12.689Z,100788.46
2023-05-09T18:24:17.085Z,100789.14
2023-05-09T18:29:20.013Z,100786.33
2023-05-09T18:34:22.566Z,100788.56
2023-05-09T18:39:25.747Z,100786.65
2023-05-09T18:44:29.816Z,100791.29
2023-05-09T18:49:32.568Z,100795.48
2023-05-09T18:54:38.232Z,100794.27
2023-05-09T18:59:41.353Z,100794.50
2023-05-09T19:04:50.310Z,100797.89
2023-05-09T19:09:52.909Z,100800.08
2023-05-09T19:14:56.440Z,100797.11
2023-05-09T19:19:59.277Z,100799.06
2023-05-09T19:25:01.892Z,100796.69
2023-05-09T19:30:05.533Z,100794.66
2023-05-09T19:35:09.034Z,100789.70
2023-05-09T19:40:12.810Z,100787.31
2023-05-09T19:45:15.919Z,100782.91
2023-05-09T19:50:18.784Z,100781.10
2023-05-09T19:55:21.449Z,100778.55
2023-05-09T20:00:24.046Z,100781.36
2023-05-09T20:05:27.480Z,100787.99
2023-05-09T20:10:30.753Z,100789.05
2023-05-09T20:15:33.353Z,100791.55
2023-05-09T20:20:35.917Z,100792.23
2023-05-09T20:25:38.494Z,100787.59
2023-05-09T20:30:41.100Z,100791.91
2023-05-09T20:35:43.878Z,100792.18
2023-05-09T20:40:47.110Z,100793.08
2023-05-09T20:45:50.056Z,100792.90
2023-05-09T20:50:52.635Z,100796.14
2023-05-09T20:55:55.753Z,100795.06
2023-05-09T21:00:58.565Z,100792.27
2023-05-09T21:06:01.091Z,100793.09
2023-05-09T21:11:03.625Z,100789.69
2023-05-09T21:16:06.186Z,100789.13
2023-05-09T21:21:08.878Z,100787.91
2023-05-09T21:26:11.739Z,100789.17
2023-05-09T21:31:14.516Z,100785.98
2023-05-09T21:36:17.046Z,100785.77
2023-05-09T21:41:21.781Z,100788.58
2023-05-09T21:46:24.402Z,100785.17
2023-05-09T21:51:28.327Z,100778.84
2023-05-09T21:56:30.896Z,100779.80
2023-05-09T22:01:33.415Z,100785.90
2023-05-09T22:06:35.948Z,100787.43
2023-05-09T22:11:38.448Z,100786.88
2023-05-09T22:16:41.099Z,100785.02
2023-05-09T22:21:44.489Z,100789.41
2023-05-09T22:26:47.197Z,100787.27
2023-05-09T22:31:49.810Z,100786.03
2023-05-09T22:36:54.446Z,100777.46
2023-05-09T22:41:56.971Z,100775.87
2023-05-09T22:46:59.632Z,100772.70
2023-05-09T22:52:02.958Z,100773.89
2023-05-09T22:57:05.580Z,100769.77
2023-05-09T23:02:08.107Z,100764.21
2023-05-09T23:07:10.843Z,100766.48
2023-05-09T23:12:13.364Z,100762.85
2023-05-09T23:17:16.053Z,100770.01
2023-05-09T23:22:18.999Z,100762.04
2023-05-09T23:27:22.444Z,100765.15
2023-05-09T23:32:25.396Z,100762.92
2023-05-09T23:37:28.092Z,100762.02
2023-05-09T23:42:30.794Z,100762.39
2023-05-09T23:47:33.365Z,100758.14
2023-05-09T23:52:36.046Z,100759.40
2023-05-09T23:57:38.658Z,100759.38
